createdAt,value
2019-04-29T00:01:47.728Z,9.57
2019-04-29T00:04:16.614Z,11.87
2019-04-29T00:06:45.594Z,11.70
2019-04-29T00:09:15.604Z,11.37
2019-04-29T00:11:44.525Z,11.77
2019-04-29T00:14:13.664Z,11.50
2019-04-29T00:17:08.333Z,10.97
2019-04-29T00:20:02.114Z,9.63
2019-04-29T00:22:31.172Z,13.13
2019-04-29T00:25:00.152Z,9.77
2019-04-29T00:27:29.086Z,12.27
2019-04-29T00:29:57.995Z,9.03
2019-04-29T00:32:27.064Z,11.13
2019-04-29T00:34:56.051Z,9.10
2019-04-29T00:37:44.048Z,9.73
2019-04-29T00:40:43.832Z,10.93
2019-04-29T00:43:30.600Z,11.53
2019-04-29T00:45:59.630Z,11.43
2019-04-29T00:48:28.728Z,11.07
2019-04-29T00:50:59.199Z,10.43
2019-04-29T00:53:28.414Z,11.20
2019-04-29T00:55:58.885Z,10.47
2019-04-29T00:58:27.830Z,10.77
2019-04-29T01:00:56.903Z,10.60
2019-04-29T01:03:25.843Z,9.77
2019-04-29T01:05:54.784Z,10.20
2019-04-29T01:08:23.830Z,10.27
2019-04-29T01:10:52.787Z,9.63
2019-04-29T01:13:21.676Z,9.00
2019-04-29T01:15:50.498Z,11.07
2019-04-29T01:18:19.458Z,9.77
2019-04-29T01:21:07.586Z,9.33
2019-04-29T01:23:36.406Z,10.10
2019-04-29T01:26:30.484Z,10.00
2019-04-29T01:28:59.757Z,9.30
2019-04-29T01:31:31.843Z,10.63
2019-04-29T01:34:15.803Z,8.80
2019-04-29T01:36:45.801Z,9.87
2019-04-29T01:39:16.372Z,7.57
2019-04-29T01:42:03.000Z,8.80
2019-04-29T01:44:33.992Z,8.70
2019-04-29T01:47:03.037Z,8.27
2019-04-29T01:49:31.976Z,9.07
2019-04-29T01:52:01.001Z,9.43
2019-04-29T01:54:29.977Z,10.53
2019-04-29T01:56:58.995Z,9.23
2019-04-29T01:59:28.035Z,9.60
2019-04-29T02:01:57.047Z,8.57
2019-04-29T02:04:26.054Z,8.47
2019-04-29T02:06:54.951Z,10.67
2019-04-29T02:09:29.525Z,9.57
2019-04-29T02:11:58.504Z,8.97
2019-04-29T02:14:27.569Z,9.30
2019-04-29T02:16:56.555Z,12.10
2019-04-29T02:19:25.461Z,9.10
2019-04-29T02:22:28.535Z,9.83
2019-04-29T02:25:02.794Z,9.27
2019-04-29T02:27:31.716Z,8.40
2019-04-29T02:30:00.610Z,10.53
2019-04-29T02:32:29.453Z,8.23
2019-04-29T02:34:58.402Z,8.30
2019-04-29T02:37:32.095Z,9.90
2019-04-29T02:40:10.075Z,11.40
2019-04-29T02:42:48.692Z,9.13
2019-04-29T02:45:24.486Z,8.77
2019-04-29T02:47:53.430Z,9.87
2019-04-29T02:50:22.403Z,9.27
2019-04-29T02:52:51.542Z,9.17
2019-04-29T02:55:29.336Z,13.20
2019-04-29T02:58:04.030Z,8.30
2019-04-29T03:00:52.128Z,9.60
2019-04-29T03:03:27.629Z,9.00
2019-04-29T03:05:59.842Z,9.83
2019-04-29T03:08:28.740Z,9.50
2019-04-29T03:10:58.942Z,10.83
2019-04-29T03:13:27.950Z,9.87
2019-04-29T03:15:57.087Z,8.90
2019-04-29T03:18:28.031Z,9.93
2019-04-29T03:21:01.932Z,12.17
2019-04-29T03:23:31.012Z,12.10
2019-04-29T03:25:59.785Z,9.37
2019-04-29T03:28:28.601Z,9.40
2019-04-29T03:30:57.557Z,10.57
2019-04-29T03:33:26.578Z,10.07
2019-04-29T03:35:55.636Z,9.37
2019-04-29T03:38:24.499Z,9.57
2019-04-29T03:40:53.477Z,10.90
2019-04-29T03:43:22.443Z,10.37
2019-04-29T03:45:51.326Z,10.43
2019-04-29T03:48:20.336Z,11.23
2019-04-29T03:50:49.127Z,10.47
2019-04-29T03:53:18.029Z,10.00
2019-04-29T03:55:46.985Z,10.30
2019-04-29T03:58:16.024Z,10.80
2019-04-29T04:01:29.081Z,11.03
2019-04-29T04:04:13.173Z,9.30
2019-04-29T04:06:46.959Z,10.07
2019-04-29T04:09:21.368Z,11.30
2019-04-29T04:11:50.381Z,10.53
2019-04-29T04:14:19.404Z,12.40
2019-04-29T04:17:20.267Z,11.80
2019-04-29T04:19:48.250Z,9.80
2019-04-29T04:22:17.301Z,10.53
2019-04-29T04:24:46.260Z,10.87
2019-04-29T04:27:15.089Z,12.17
2019-04-29T04:29:44.024Z,12.20
2019-04-29T04:32:12.892Z,11.37
2019-04-29T04:34:41.884Z,11.10
2019-04-29T04:37:10.862Z,13.20
2019-04-29T04:39:41.396Z,11.90
2019-04-29T04:42:10.401Z,11.00
2019-04-29T04:44:53.088Z,10.80
2019-04-29T04:47:22.147Z,10.80
2019-04-29T04:49:51.183Z,11.23
2019-04-29T04:52:21.447Z,10.93
2019-04-29T04:54:52.373Z,10.90
2019-04-29T04:57:21.290Z,12.90
2019-04-29T04:59:51.291Z,7.63
2019-04-29T05:02:21.293Z,8.90
2019-04-29T05:04:50.216Z,90.83
2019-04-29T05:07:19.271Z,253.00
2019-04-29T05:09:48.227Z,201.73
2019-04-29T05:12:17.169Z,131.93
2019-04-29T05:14:46.239Z,89.13
2019-04-29T05:17:16.675Z,59.07
2019-04-29T05:19:45.608Z,33.23
2019-04-29T05:22:14.517Z,26.50
2019-04-29T05:24:43.386Z,18.77
2019-04-29T05:27:12.432Z,14.30
2019-04-29T05:29:41.406Z,13.97
2019-04-29T05:32:10.378Z,10.47
2019-04-29T05:34:41.706Z,8.90
2019-04-29T05:37:19.187Z,8.00
2019-04-29T05:39:48.149Z,9.57
2019-04-29T05:42:17.374Z,29.10
2019-04-29T05:44:57.434Z,70.43
2019-04-29T05:47:37.979Z,89.93
2019-04-29T05:50:28.792Z,92.87
2019-04-29T05:53:17.908Z,79.53
2019-04-29T05:55:46.817Z,69.20
2019-04-29T05:58:15.730Z,52.10
2019-04-29T06:01:07.426Z,43.13
2019-04-29T06:03:37.804Z,193.27
2019-04-29T06:06:07.196Z,188.33
2019-04-29T06:08:39.320Z,138.97
2019-04-29T06:11:06.877Z,127.73
2019-04-29T06:13:35.948Z,91.47
2019-04-29T06:16:04.931Z,76.90
2019-04-29T06:18:33.817Z,55.50
2019-04-29T06:21:09.291Z,44.23
2019-04-29T06:23:33.421Z,38.30
2019-04-29T06:26:02.413Z,33.90
2019-04-29T06:28:31.301Z,22.73
2019-04-29T06:31:00.528Z,18.07
2019-04-29T06:33:30.984Z,16.97
2019-04-29T06:36:00.152Z,13.73
2019-04-29T06:38:29.137Z,16.07
2019-04-29T06:40:58.331Z,31.07
2019-04-29T06:43:28.670Z,164.57
2019-04-29T06:45:57.788Z,111.50
2019-04-29T06:48:26.796Z,84.30
2019-04-29T06:50:55.728Z,55.83
2019-04-29T06:53:24.624Z,48.53
2019-04-29T06:55:53.524Z,39.30
2019-04-29T06:58:22.446Z,25.67
2019-04-29T07:00:55.723Z,18.80
2019-04-29T07:03:25.577Z,18.63
2019-04-29T07:05:52.769Z,15.57
2019-04-29T07:08:21.744Z,13.47
2019-04-29T07:10:50.767Z,16.30
2019-04-29T07:13:22.925Z,13.77
2019-04-29T07:15:50.425Z,14.50
2019-04-29T07:18:19.411Z,12.67
2019-04-29T07:20:48.856Z,12.47
2019-04-29T07:23:17.803Z,11.07
2019-04-29T07:25:46.712Z,12.00
2019-04-29T07:28:18.491Z,12.43
2019-04-29T07:31:01.022Z,12.73
2019-04-29T07:33:22.180Z,12.47
2019-04-29T07:35:49.587Z,12.97
2019-04-29T07:38:18.667Z,11.50
2019-04-29T07:40:47.527Z,13.70
2019-04-29T07:43:16.558Z,11.23
2019-04-29T07:46:07.732Z,11.43
2019-04-29T07:48:41.319Z,11.30
2019-04-29T07:51:07.296Z,11.23
2019-04-29T07:53:44.704Z,12.57
2019-04-29T07:56:08.218Z,10.67
2019-04-29T07:58:37.345Z,9.60
2019-04-29T08:01:06.840Z,9.17
2019-04-29T08:03:35.739Z,9.40
2019-04-29T08:06:04.768Z,6.70
2019-04-29T08:08:33.651Z,8.37
2019-04-29T08:11:02.601Z,7.80
2019-04-29T08:13:31.680Z,8.00
2019-04-29T08:16:00.608Z,6.80
2019-04-29T08:18:29.520Z,7.40
2019-04-29T08:20:58.417Z,7.73
2019-04-29T08:23:27.365Z,6.63
2019-04-29T08:25:57.551Z,6.07
2019-04-29T08:28:27.038Z,6.23
2019-04-29T08:30:56.026Z,6.27
2019-04-29T08:33:25.001Z,7.03
2019-04-29T08:35:53.820Z,7.00
2019-04-29T08:38:22.775Z,6.10
2019-04-29T08:40:51.800Z,6.60
2019-04-29T08:43:38.610Z,6.73
2019-04-29T08:46:11.130Z,8.87
2019-04-29T08:48:40.148Z,7.50
2019-04-29T08:51:08.972Z,7.83
2019-04-29T08:53:39.241Z,6.37
2019-04-29T08:56:10.318Z,6.13
2019-04-29T08:58:39.506Z,6.33
2019-04-29T09:01:08.644Z,7.30
2019-04-29T09:03:40.619Z,8.30
2019-04-29T09:06:08.084Z,6.90
2019-04-29T09:08:37.069Z,6.43
2019-04-29T09:11:08.144Z,6.30
2019-04-29T09:13:36.856Z,6.57
2019-04-29T09:16:05.852Z,7.23
2019-04-29T09:18:34.782Z,5.73
2019-04-29T09:21:03.735Z,5.83
2019-04-29T09:23:33.888Z,6.00
2019-04-29T09:26:18.184Z,6.30
2019-04-29T09:28:49.819Z,5.90
2019-04-29T09:31:18.345Z,5.70
2019-04-29T09:33:50.823Z,4.90
2019-04-29T09:36:19.204Z,5.73
2019-04-29T09:38:48.168Z,7.83
2019-04-29T09:41:24.460Z,5.57
2019-04-29T09:44:12.628Z,7.03
2019-04-29T09:46:41.588Z,7.33
2019-04-29T09:49:10.362Z,4.77
2019-04-29T09:51:41.732Z,5.00
2019-04-29T09:54:14.701Z,5.90
2019-04-29T09:56:41.285Z,5.47
2019-04-29T09:59:25.796Z,4.77
2019-04-29T10:02:16.597Z,5.57
2019-04-29T10:04:59.125Z,6.00
2019-04-29T10:07:28.064Z,6.60
2019-04-29T10:09:57.839Z,5.40
2019-04-29T10:12:27.565Z,6.67
2019-04-29T10:15:17.273Z,7.30
2019-04-29T10:17:56.030Z,6.87
2019-04-29T10:20:30.416Z,6.30
2019-04-29T10:22:59.459Z,7.03
2019-04-29T10:25:29.670Z,4.97
2019-04-29T10:27:58.585Z,5.53
2019-04-29T10:30:31.108Z,7.27
2019-04-29T10:32:58.822Z,7.50
2019-04-29T10:35:27.796Z,4.43
2019-04-29T10:37:56.789Z,5.43
2019-04-29T10:40:32.672Z,6.30
2019-04-29T10:43:15.469Z,5.60
2019-04-29T10:46:02.178Z,3.60
2019-04-29T10:48:35.701Z,5.70
2019-04-29T10:51:05.462Z,4.73
2019-04-29T10:53:34.463Z,4.50
2019-04-29T10:56:05.824Z,3.53
2019-04-29T10:58:35.677Z,4.27
2019-04-29T11:01:54.630Z,3.53
2019-04-29T11:04:17.311Z,4.60
2019-04-29T11:06:46.317Z,4.43
2019-04-29T11:09:34.373Z,5.03
2019-04-29T11:12:05.368Z,3.23
2019-04-29T11:14:37.627Z,3.17
2019-04-29T11:17:04.907Z,5.10
2019-04-29T11:19:35.058Z,5.10
2019-04-29T11:22:04.608Z,5.93
2019-04-29T11:24:45.122Z,4.40
2019-04-29T11:27:18.201Z,3.33
2019-04-29T11:29:47.093Z,5.93
2019-04-29T11:32:24.846Z,3.83
2019-04-29T11:35:07.456Z,5.13
2019-04-29T11:37:38.070Z,5.67
2019-04-29T11:40:07.169Z,4.33
2019-04-29T11:42:39.466Z,4.90
2019-04-29T11:45:09.132Z,4.97
2019-04-29T11:47:38.139Z,5.20
2019-04-29T11:50:32.564Z,5.60
2019-04-29T11:53:01.686Z,3.77
2019-04-29T11:55:30.586Z,5.13
2019-04-29T11:58:08.293Z,4.77
2019-04-29T12:01:08.382Z,4.27
2019-04-29T12:03:38.941Z,4.57
2019-04-29T12:06:09.236Z,5.73
2019-04-29T12:08:38.313Z,5.07
2019-04-29T12:11:07.642Z,5.03
2019-04-29T12:13:58.910Z,3.40
2019-04-29T12:16:31.107Z,5.87
2019-04-29T12:19:07.378Z,4.53
2019-04-29T12:21:37.283Z,3.63
2019-04-29T12:24:07.745Z,3.90
2019-04-29T12:26:42.871Z,3.33
2019-04-29T12:29:07.548Z,4.53
2019-04-29T12:31:56.334Z,3.57
2019-04-29T12:34:43.435Z,3.80
2019-04-29T12:37:34.495Z,3.80
2019-04-29T12:40:36.715Z,5.77
2019-04-29T12:43:24.447Z,3.40
2019-04-29T12:46:12.548Z,3.00
2019-04-29T12:48:41.702Z,3.03
2019-04-29T12:51:10.819Z,3.13
2019-04-29T12:53:39.847Z,3.97
2019-04-29T12:56:11.256Z,2.13
2019-04-29T12:58:39.739Z,3.57
2019-04-29T13:01:19.964Z,3.43
2019-04-29T13:04:14.868Z,2.57
2019-04-29T13:07:12.988Z,3.67
2019-04-29T13:09:43.682Z,3.33
2019-04-29T13:12:19.693Z,2.30
2019-04-29T13:15:02.292Z,3.47
2019-04-29T13:17:32.016Z,2.20
2019-04-29T13:20:07.210Z,2.57
2019-04-29T13:22:54.162Z,3.37
2019-04-29T13:25:23.186Z,2.33
2019-04-29T13:27:56.070Z,2.43
2019-04-29T13:30:22.901Z,2.13
2019-04-29T13:32:52.954Z,3.93
2019-04-29T13:35:22.076Z,6.83
2019-04-29T13:37:51.046Z,4.80
2019-04-29T13:40:20.061Z,3.50
2019-04-29T13:42:51.007Z,3.80
2019-04-29T13:45:26.205Z,4.13
2019-04-29T13:48:07.103Z,3.90
2019-04-29T13:50:57.028Z,4.20
2019-04-29T13:53:26.012Z,3.67
2019-04-29T13:56:10.523Z,5.73
2019-04-29T13:58:27.175Z,4.93
2019-04-29T14:01:22.143Z,5.13
2019-04-29T14:03:51.600Z,6.60
2019-04-29T14:06:20.644Z,3.50
2019-04-29T14:08:49.669Z,4.57
2019-04-29T14:11:21.981Z,8.50
2019-04-29T14:13:49.212Z,5.17
2019-04-29T14:16:19.354Z,5.23
2019-04-29T14:18:50.043Z,4.27
2019-04-29T14:21:19.303Z,3.73
2019-04-29T14:23:48.299Z,4.53
2019-04-29T14:26:17.332Z,4.10
2019-04-29T14:28:46.265Z,6.93
2019-04-29T14:31:18.736Z,3.77
2019-04-29T14:33:55.931Z,5.30
2019-04-29T14:36:26.364Z,3.63
2019-04-29T14:38:55.366Z,3.77
2019-04-29T14:41:24.778Z,5.77
2019-04-29T14:44:05.989Z,3.67
2019-04-29T14:46:52.022Z,2.70
2019-04-29T14:49:26.660Z,4.83
2019-04-29T14:51:55.656Z,4.20
2019-04-29T14:54:24.648Z,5.13
2019-04-29T14:56:53.671Z,3.23
2019-04-29T14:59:22.635Z,4.17
2019-04-29T15:01:57.111Z,4.30
2019-04-29T15:04:28.731Z,4.67
2019-04-29T15:06:57.790Z,3.10
2019-04-29T15:09:26.808Z,5.20
2019-04-29T15:12:05.958Z,5.23
2019-04-29T15:15:07.903Z,5.50
2019-04-29T15:17:45.002Z,6.03
2019-04-29T15:20:43.060Z,5.20
2019-04-29T15:23:12.019Z,6.33
2019-04-29T15:25:41.002Z,8.30
2019-04-29T15:28:09.899Z,7.97
2019-04-29T15:30:38.770Z,4.93
2019-04-29T15:33:07.681Z,11.13
2019-04-29T15:35:36.792Z,222.03
2019-04-29T15:38:05.721Z,86.13
2019-04-29T15:40:42.202Z,36.03
2019-04-29T15:43:17.784Z,21.23
2019-04-29T15:45:46.463Z,13.60
2019-04-29T15:48:15.397Z,6.60
2019-04-29T15:50:44.440Z,6.47
2019-04-29T15:53:14.996Z,4.57
2019-04-29T15:55:43.846Z,6.07
2019-04-29T15:58:12.871Z,4.40
2019-04-29T16:00:41.947Z,9.07
2019-04-29T16:03:12.637Z,3.97
2019-04-29T16:06:19.690Z,8.37
2019-04-29T16:08:43.626Z,5.83
2019-04-29T16:11:33.276Z,4.03
2019-04-29T16:14:09.506Z,4.90
2019-04-29T16:16:31.803Z,7.53
2019-04-29T16:19:08.151Z,5.13
2019-04-29T16:21:32.220Z,7.10
2019-04-29T16:24:01.918Z,3.57
2019-04-29T16:26:32.104Z,4.83
2019-04-29T16:29:01.099Z,4.43
2019-04-29T16:31:30.136Z,5.43
2019-04-29T16:33:59.088Z,5.47
2019-04-29T16:36:28.039Z,5.70
2019-04-29T16:38:57.090Z,5.03
2019-04-29T16:41:45.179Z,4.77
2019-04-29T16:44:33.960Z,4.07
2019-04-29T16:46:46.107Z,6.83
2019-04-29T16:49:14.989Z,5.20
2019-04-29T16:51:47.943Z,65.20
2019-04-29T16:54:19.867Z,138.47
2019-04-29T16:56:45.253Z,75.43
2019-04-29T16:59:14.304Z,34.03
2019-04-29T17:01:43.451Z,18.63
2019-04-29T17:04:12.553Z,9.87
2019-04-29T17:06:47.171Z,6.50
2019-04-29T17:09:29.925Z,7.50
2019-04-29T17:12:00.122Z,7.43
2019-04-29T17:14:29.190Z,5.30
2019-04-29T17:16:58.267Z,4.40
2019-04-29T17:19:27.513Z,6.83
2019-04-29T17:22:23.603Z,4.70
2019-04-29T17:24:27.305Z,6.37
2019-04-29T17:27:03.813Z,5.57
2019-04-29T17:29:49.544Z,5.63
2019-04-29T17:32:53.802Z,5.57
2019-04-29T17:37:54.147Z,5.93
2019-04-29T17:40:24.004Z,360.33
2019-04-29T17:45:52.050Z,53.17
2019-04-29T17:48:27.790Z,26.70
2019-04-29T17:51:01.593Z,10.87
2019-04-29T17:53:35.529Z,9.67
2019-04-29T17:56:14.967Z,7.53
2019-04-29T17:58:51.595Z,6.47
2019-04-29T18:01:43.210Z,7.30
2019-04-29T18:04:28.472Z,6.30
2019-04-29T18:07:15.508Z,8.20
2019-04-29T18:09:55.192Z,9.77
2019-04-29T18:12:24.930Z,9.67
2019-04-29T18:14:55.159Z,7.80
2019-04-29T18:17:31.073Z,6.70
2019-04-29T18:20:30.754Z,7.23
2019-04-29T18:23:04.866Z,7.73
2019-04-29T18:25:50.449Z,7.67
2019-04-29T18:28:19.934Z,7.47
2019-04-29T18:30:49.829Z,7.57
2019-04-29T18:33:23.363Z,7.97
2019-04-29T18:35:50.308Z,7.30
2019-04-29T18:38:19.301Z,7.70
2019-04-29T18:40:49.436Z,7.33
2019-04-29T18:43:19.121Z,7.97
2019-04-29T18:45:56.162Z,6.53
2019-04-29T18:48:21.614Z,6.77
2019-04-29T18:50:50.422Z,5.83
2019-04-29T18:53:19.372Z,7.33
2019-04-29T18:55:48.380Z,6.23
2019-04-29T18:58:17.359Z,7.80
2019-04-29T19:00:52.324Z,6.07
2019-04-29T19:03:19.336Z,6.57
2019-04-29T19:05:56.936Z,8.27
2019-04-29T19:08:28.656Z,5.83
2019-04-29T19:10:56.548Z,6.20
2019-04-29T19:13:26.984Z,6.80
2019-04-29T19:16:08.763Z,6.60
2019-04-29T19:18:26.615Z,5.63
2019-04-29T19:20:56.960Z,5.23
2019-04-29T19:23:29.524Z,4.87
2019-04-29T19:25:56.960Z,5.60
2019-04-29T19:28:30.966Z,6.40
2019-04-29T19:31:03.257Z,4.00
2019-04-29T19:33:30.681Z,4.70
2019-04-29T19:35:57.711Z,4.27
2019-04-29T19:38:26.607Z,4.33
2019-04-29T19:40:55.826Z,4.43
2019-04-29T19:43:25.864Z,4.60
2019-04-29T19:45:57.433Z,4.90
2019-04-29T19:48:27.215Z,4.07
2019-04-29T19:51:13.916Z,4.80
2019-04-29T19:53:27.715Z,4.73
2019-04-29T19:56:04.194Z,5.73
2019-04-29T19:58:29.566Z,5.60
2019-04-29T20:01:10.888Z,5.30
2019-04-29T20:03:36.578Z,4.57
2019-04-29T20:06:09.009Z,4.70
2019-04-29T20:08:50.912Z,5.87
2019-04-29T20:11:14.109Z,5.60
2019-04-29T20:13:41.027Z,6.17
2019-04-29T20:16:42.762Z,5.73
2019-04-29T20:19:21.744Z,7.30
2019-04-29T20:21:51.199Z,7.23
2019-04-29T20:24:23.442Z,4.73
2019-04-29T20:26:50.909Z,5.47
2019-04-29T20:29:20.067Z,4.77
2019-04-29T20:31:53.312Z,5.77
2019-04-29T20:34:28.245Z,7.13
2019-04-29T20:36:56.893Z,6.20
2019-04-29T20:39:26.318Z,5.67
2019-04-29T20:42:01.107Z,5.40
2019-04-29T20:44:27.653Z,5.70
2019-04-29T20:47:13.994Z,5.57
2019-04-29T20:49:30.893Z,5.77
2019-04-29T20:52:05.848Z,5.40
2019-04-29T20:54:35.601Z,4.63
2019-04-29T20:57:12.572Z,5.63
2019-04-29T20:59:35.942Z,7.40
2019-04-29T21:02:12.575Z,3.97
2019-04-29T21:04:45.784Z,5.23
2019-04-29T21:07:08.467Z,3.77
2019-04-29T21:09:37.507Z,5.10
2019-04-29T21:12:22.972Z,4.20
2019-04-29T21:14:59.159Z,6.33
2019-04-29T21:17:31.444Z,4.63
2019-04-29T21:19:57.527Z,3.73
2019-04-29T21:22:26.495Z,4.87
2019-04-29T21:24:56.518Z,3.87
2019-04-29T21:27:25.953Z,3.23
2019-04-29T21:29:55.453Z,2.73
2019-04-29T21:32:25.838Z,3.87
2019-04-29T21:35:15.125Z,2.90
2019-04-29T21:37:53.069Z,3.07
2019-04-29T21:40:27.899Z,3.63
2019-04-29T21:43:00.935Z,3.77
2019-04-29T21:45:29.888Z,3.23
2019-04-29T21:47:58.836Z,2.10
2019-04-29T21:50:34.057Z,5.03
2019-04-29T21:53:01.952Z,7.27
2019-04-29T21:55:30.014Z,3.63
2019-04-29T21:58:00.154Z,3.10
2019-04-29T22:00:29.298Z,5.63
2019-04-29T22:02:59.077Z,3.83
2019-04-29T22:05:28.101Z,3.33
2019-04-29T22:07:57.152Z,3.27
2019-04-29T22:10:28.957Z,3.67
2019-04-29T22:13:01.926Z,1.80
2019-04-29T22:15:32.347Z,3.50
2019-04-29T22:18:01.269Z,2.37
2019-04-29T22:20:28.528Z,3.10
2019-04-29T22:22:58.652Z,3.80
2019-04-29T22:25:27.676Z,3.37
2019-04-29T22:27:56.684Z,3.37
2019-04-29T22:30:26.602Z,4.33
2019-04-29T22:32:58.675Z,4.97
2019-04-29T22:35:27.768Z,2.60
2019-04-29T22:37:56.866Z,3.63
2019-04-29T22:40:25.797Z,3.07
2019-04-29T22:43:10.207Z,6.27
2019-04-29T22:45:38.232Z,3.83
2019-04-29T22:48:15.713Z,3.57
2019-04-29T22:50:39.321Z,4.70
2019-04-29T22:53:08.998Z,3.20
2019-04-29T22:55:39.308Z,3.63
2019-04-29T22:58:09.992Z,4.17
2019-04-29T23:00:40.628Z,4.13
2019-04-29T23:03:09.612Z,3.97
2019-04-29T23:05:38.629Z,2.40
2019-04-29T23:08:07.541Z,4.60
2019-04-29T23:10:36.491Z,5.07
2019-04-29T23:13:06.157Z,5.67
2019-04-29T23:15:35.831Z,3.87
2019-04-29T23:18:06.123Z,6.63
2019-04-29T23:20:55.333Z,3.57
2019-04-29T23:23:33.436Z,3.83
2019-04-29T23:26:04.177Z,3.37
2019-04-29T23:28:32.960Z,5.47
2019-04-29T23:31:01.932Z,4.07
2019-04-29T23:33:30.754Z,4.93
2019-04-29T23:35:59.753Z,5.00
2019-04-29T23:38:28.696Z,3.03
2019-04-29T23:40:57.605Z,3.90
2019-04-29T23:43:28.435Z,5.63
2019-04-29T23:46:00.537Z,3.33
2019-04-29T23:48:38.727Z,3.17
2019-04-29T23:50:58.599Z,4.43
2019-04-29T23:53:27.620Z,3.63
2019-04-29T23:56:00.257Z,4.43
2019-04-29T23:58:47.927Z,3.33
